sensor_id;sensor_type;location;lat;lon;timestamp;P1;durP1;ratioP1;P2;durP2;ratioP2
35312;SDS011;21425;50.454;30.466;2022-08-14T00:00:53;12.23;;;7.82;;
35312;SDS011;21425;50.454;30.466;2022-08-14T00:03:20;13.55;;;8.23;;
35312;SDS011;21425;50.454;30.466;2022-08-14T00:05:48;15.70;;;8.60;;
35312;SDS011;21425;50.454;30.466;2022-08-14T00:08:15;12.35;;;8.52;;
35312;SDS011;21425;50.454;30.466;2022-08-14T00:10:41;16.02;;;8.55;;
35312;SDS011;21425;50.454;30.466;2022-08-14T00:13:08;12.68;;;8.27;;
35312;SDS011;21425;50.454;30.466;2022-08-14T00:15:36;13.00;;;8.43;;
35312;SDS011;21425;50.454;30.466;2022-08-14T00:18:05;13.10;;;8.25;;
35312;SDS011;21425;50.454;30.466;2022-08-14T00:20:33;15.07;;;8.68;;
35312;SDS011;21425;50.454;30.466;2022-08-14T00:23:03;10.73;;;7.63;;
35312;SDS011;21425;50.454;30.466;2022-08-14T00:25:30;14.05;;;7.82;;
35312;SDS011;21425;50.454;30.466;2022-08-14T00:27:56;16.25;;;7.70;;
35312;SDS011;21425;50.454;30.466;2022-08-14T00:30:22;15.45;;;8.40;;
35312;SDS011;21425;50.454;30.466;2022-08-14T00:32:47;11.00;;;7.68;;
35312;SDS011;21425;50.454;30.466;2022-08-14T00:35:13;14.18;;;7.97;;
35312;SDS011;21425;50.454;30.466;2022-08-14T00:37:40;9.30;;;7.30;;
35312;SDS011;21425;50.454;30.466;2022-08-14T00:40:08;14.45;;;8.20;;
35312;SDS011;21425;50.454;30.466;2022-08-14T00:42:36;11.23;;;7.40;;
35312;SDS011;21425;50.454;30.466;2022-08-14T00:45:03;16.70;;;8.80;;
35312;SDS011;21425;50.454;30.466;2022-08-14T00:47:29;14.18;;;7.88;;
35312;SDS011;21425;50.454;30.466;2022-08-14T00:49:55;10.63;;;8.02;;
35312;SDS011;21425;50.454;30.466;2022-08-14T00:52:21;18.25;;;7.68;;
35312;SDS011;21425;50.454;30.466;2022-08-14T00:54:49;13.38;;;8.52;;
35312;SDS011;21425;50.454;30.466;2022-08-14T00:57:19;11.85;;;8.45;;
35312;SDS011;21425;50.454;30.466;2022-08-14T00:59:47;13.57;;;8.38;;
35312;SDS011;21425;50.454;30.466;2022-08-14T01:02:14;15.40;;;7.80;;
35312;SDS011;21425;50.454;30.466;2022-08-14T01:04:43;12.88;;;8.25;;
35312;SDS011;21425;50.454;30.466;2022-08-14T01:07:10;15.35;;;8.80;;
35312;SDS011;21425;50.454;30.466;2022-08-14T01:09:36;17.48;;;9.40;;
35312;SDS011;21425;50.454;30.466;2022-08-14T01:12:03;13.40;;;7.88;;
35312;SDS011;21425;50.454;30.466;2022-08-14T01:14:29;15.35;;;8.95;;
35312;SDS011;21425;50.454;30.466;2022-08-14T01:16:56;14.93;;;8.32;;
35312;SDS011;21425;50.454;30.466;2022-08-14T01:19:23;11.93;;;7.70;;
35312;SDS011;21425;50.454;30.466;2022-08-14T01:22:09;11.80;;;8.02;;
35312;SDS011;21425;50.454;30.466;2022-08-14T01:24:35;13.18;;;7.72;;
35312;SDS011;21425;50.454;30.466;2022-08-14T01:27:02;12.70;;;8.30;;
35312;SDS011;21425;50.454;30.466;2022-08-14T01:29:29;11.77;;;8.45;;
35312;SDS011;21425;50.454;30.466;2022-08-14T01:32:02;15.85;;;8.27;;
35312;SDS011;21425;50.454;30.466;2022-08-14T01:34:29;11.70;;;8.32;;
35312;SDS011;21425;50.454;30.466;2022-08-14T01:36:57;15.50;;;8.50;;
35312;SDS011;21425;50.454;30.466;2022-08-14T01:39:23;15.32;;;8.93;;
35312;SDS011;21425;50.454;30.466;2022-08-14T01:41:49;13.45;;;8.38;;
35312;SDS011;21425;50.454;30.466;2022-08-14T01:44:24;18.92;;;8.90;;
35312;SDS011;21425;50.454;30.466;2022-08-14T01:46:54;12.93;;;8.45;;
35312;SDS011;21425;50.454;30.466;2022-08-14T01:49:24;16.08;;;8.63;;
35312;SDS011;21425;50.454;30.466;2022-08-14T01:51:50;12.48;;;7.72;;
35312;SDS011;21425;50.454;30.466;2022-08-14T01:54:20;14.82;;;8.70;;
35312;SDS011;21425;50.454;30.466;2022-08-14T01:56:47;13.60;;;8.38;;
35312;SDS011;21425;50.454;30.466;2022-08-14T02:01:43;14.75;;;8.63;;
35312;SDS011;21425;50.454;30.466;2022-08-14T02:04:09;15.60;;;9.23;;
35312;SDS011;21425;50.454;30.466;2022-08-14T02:06:36;14.30;;;8.35;;
35312;SDS011;21425;50.454;30.466;2022-08-14T02:09:05;15.93;;;8.85;;
35312;SDS011;21425;50.454;30.466;2022-08-14T02:11:31;13.57;;;8.50;;
35312;SDS011;21425;50.454;30.466;2022-08-14T02:16:26;10.65;;;8.05;;
35312;SDS011;21425;50.454;30.466;2022-08-14T02:18:55;12.15;;;9.07;;
35312;SDS011;21425;50.454;30.466;2022-08-14T02:21:22;13.40;;;8.55;;
35312;SDS011;21425;50.454;30.466;2022-08-14T02:23:49;14.15;;;8.45;;
35312;SDS011;21425;50.454;30.466;2022-08-14T02:26:17;13.32;;;8.23;;
35312;SDS011;21425;50.454;30.466;2022-08-14T02:28:48;15.82;;;9.38;;
35312;SDS011;21425;50.454;30.466;2022-08-14T02:31:16;12.82;;;8.07;;
35312;SDS011;21425;50.454;30.466;2022-08-14T02:33:42;13.90;;;8.45;;
35312;SDS011;21425;50.454;30.466;2022-08-14T02:36:09;13.50;;;7.90;;
35312;SDS011;21425;50.454;30.466;2022-08-14T02:38:36;11.93;;;8.30;;
35312;SDS011;21425;50.454;30.466;2022-08-14T02:41:02;15.55;;;8.27;;
35312;SDS011;21425;50.454;30.466;2022-08-14T02:43:29;16.42;;;8.40;;
35312;SDS011;21425;50.454;30.466;2022-08-14T02:45:56;13.82;;;8.55;;
35312;SDS011;21425;50.454;30.466;2022-08-14T02:48:22;15.85;;;8.15;;
35312;SDS011;21425;50.454;30.466;2022-08-14T02:50:59;11.70;;;7.32;;
35312;SDS011;21425;50.454;30.466;2022-08-14T02:53:25;17.13;;;7.80;;
35312;SDS011;21425;50.454;30.466;2022-08-14T02:55:50;13.20;;;7.68;;
35312;SDS011;21425;50.454;30.466;2022-08-14T02:58:16;12.75;;;8.10;;
35312;SDS011;21425;50.454;30.466;2022-08-14T03:00:45;13.88;;;7.70;;
35312;SDS011;21425;50.454;30.466;2022-08-14T03:03:12;13.70;;;7.47;;
35312;SDS011;21425;50.454;30.466;2022-08-14T03:05:38;13.38;;;7.78;;
35312;SDS011;21425;50.454;30.466;2022-08-14T03:08:05;11.18;;;7.47;;
35312;SDS011;21425;50.454;30.466;2022-08-14T03:10:34;12.07;;;7.32;;
35312;SDS011;21425;50.454;30.466;2022-08-14T03:13:01;11.02;;;7.45;;
35312;SDS011;21425;50.454;30.466;2022-08-14T03:15:29;12.93;;;7.45;;
35312;SDS011;21425;50.454;30.466;2022-08-14T03:17:57;12.77;;;7.95;;
35312;SDS011;21425;50.454;30.466;2022-08-14T03:20:22;14.98;;;7.97;;
35312;SDS011;21425;50.454;30.466;2022-08-14T03:22:48;12.48;;;7.18;;
35312;SDS011;21425;50.454;30.466;2022-08-14T03:25:15;12.00;;;7.70;;
35312;SDS011;21425;50.454;30.466;2022-08-14T03:27:40;11.77;;;7.35;;
35312;SDS011;21425;50.454;30.466;2022-08-14T03:30:06;11.07;;;7.63;;
35312;SDS011;21425;50.454;30.466;2022-08-14T03:32:32;13.60;;;7.85;;
35312;SDS011;21425;50.454;30.466;2022-08-14T03:34:58;10.45;;;7.32;;
35312;SDS011;21425;50.454;30.466;2022-08-14T03:37:24;11.50;;;7.70;;
35312;SDS011;21425;50.454;30.466;2022-08-14T03:39:53;12.50;;;7.75;;
35312;SDS011;21425;50.454;30.466;2022-08-14T03:42:19;10.23;;;6.90;;
35312;SDS011;21425;50.454;30.466;2022-08-14T03:44:45;10.75;;;7.10;;
35312;SDS011;21425;50.454;30.466;2022-08-14T03:47:12;11.95;;;7.82;;
35312;SDS011;21425;50.454;30.466;2022-08-14T03:49:38;11.45;;;8.05;;
35312;SDS011;21425;50.454;30.466;2022-08-14T03:52:04;12.75;;;7.95;;
35312;SDS011;21425;50.454;30.466;2022-08-14T03:54:30;16.48;;;8.52;;
35312;SDS011;21425;50.454;30.466;2022-08-14T03:56:59;15.25;;;6.70;;
35312;SDS011;21425;50.454;30.466;2022-08-14T03:59:25;14.98;;;7.60;;
35312;SDS011;21425;50.454;30.466;2022-08-14T04:01:51;10.60;;;7.40;;
35312;SDS011;21425;50.454;30.466;2022-08-14T04:04:17;13.77;;;6.95;;
35312;SDS011;21425;50.454;30.466;2022-08-14T04:06:43;9.60;;;6.85;;
35312;SDS011;21425;50.454;30.466;2022-08-14T04:09:09;14.05;;;7.65;;
35312;SDS011;21425;50.454;30.466;2022-08-14T04:11:35;11.13;;;6.93;;
35312;SDS011;21425;50.454;30.466;2022-08-14T04:14:02;11.30;;;7.10;;
35312;SDS011;21425;50.454;30.466;2022-08-14T04:16:29;17.60;;;7.60;;
35312;SDS011;21425;50.454;30.466;2022-08-14T04:18:56;9.95;;;6.68;;
35312;SDS011;21425;50.454;30.466;2022-08-14T04:21:24;9.65;;;7.35;;
35312;SDS011;21425;50.454;30.466;2022-08-14T04:23:53;9.50;;;7.10;;
35312;SDS011;21425;50.454;30.466;2022-08-14T04:26:22;9.82;;;7.43;;
35312;SDS011;21425;50.454;30.466;2022-08-14T04:28:51;9.70;;;7.13;;
35312;SDS011;21425;50.454;30.466;2022-08-14T04:31:18;10.77;;;7.05;;
35312;SDS011;21425;50.454;30.466;2022-08-14T04:33:45;13.65;;;7.55;;
35312;SDS011;21425;50.454;30.466;2022-08-14T04:36:12;11.60;;;7.40;;
35312;SDS011;21425;50.454;30.466;2022-08-14T04:38:38;11.13;;;7.25;;
35312;SDS011;21425;50.454;30.466;2022-08-14T04:41:22;12.20;;;7.25;;
35312;SDS011;21425;50.454;30.466;2022-08-14T04:44:07;11.50;;;7.32;;
35312;SDS011;21425;50.454;30.466;2022-08-14T04:46:33;9.55;;;7.22;;
35312;SDS011;21425;50.454;30.466;2022-08-14T04:48:59;11.38;;;8.07;;
35312;SDS011;21425;50.454;30.466;2022-08-14T04:51:26;10.68;;;7.65;;
35312;SDS011;21425;50.454;30.466;2022-08-14T04:53:52;12.18;;;7.80;;
35312;SDS011;21425;50.454;30.466;2022-08-14T04:56:20;12.77;;;7.25;;
35312;SDS011;21425;50.454;30.466;2022-08-14T04:58:48;11.88;;;6.90;;
35312;SDS011;21425;50.454;30.466;2022-08-14T05:01:17;12.27;;;7.57;;
35312;SDS011;21425;50.454;30.466;2022-08-14T05:03:42;12.63;;;7.80;;
35312;SDS011;21425;50.454;30.466;2022-08-14T05:06:09;14.35;;;7.38;;
35312;SDS011;21425;50.454;30.466;2022-08-14T05:08:36;9.77;;;7.63;;
35312;SDS011;21425;50.454;30.466;2022-08-14T05:11:05;12.85;;;7.60;;
35312;SDS011;21425;50.454;30.466;2022-08-14T05:13:32;10.45;;;6.85;;
35312;SDS011;21425;50.454;30.466;2022-08-14T05:16:01;11.57;;;7.57;;
35312;SDS011;21425;50.454;30.466;2022-08-14T05:18:29;15.40;;;8.15;;
35312;SDS011;21425;50.454;30.466;2022-08-14T05:21:03;12.55;;;7.20;;
35312;SDS011;21425;50.454;30.466;2022-08-14T05:23:32;17.98;;;8.45;;
35312;SDS011;21425;50.454;30.466;2022-08-14T05:25:59;13.95;;;8.43;;
35312;SDS011;21425;50.454;30.466;2022-08-14T05:28:27;13.68;;;8.35;;
35312;SDS011;21425;50.454;30.466;2022-08-14T05:31:02;12.77;;;8.48;;
35312;SDS011;21425;50.454;30.466;2022-08-14T05:33:33;12.68;;;8.90;;
35312;SDS011;21425;50.454;30.466;2022-08-14T05:36:00;15.63;;;7.88;;
35312;SDS011;21425;50.454;30.466;2022-08-14T05:38:32;10.93;;;8.02;;
35312;SDS011;21425;50.454;30.466;2022-08-14T05:41:01;10.48;;;7.95;;
35312;SDS011;21425;50.454;30.466;2022-08-14T05:43:29;10.05;;;7.57;;
35312;SDS011;21425;50.454;30.466;2022-08-14T05:45:55;10.48;;;7.55;;
35312;SDS011;21425;50.454;30.466;2022-08-14T05:48:22;14.23;;;7.85;;
35312;SDS011;21425;50.454;30.466;2022-08-14T05:50:48;14.27;;;7.50;;
35312;SDS011;21425;50.454;30.466;2022-08-14T05:53:15;11.52;;;7.55;;
35312;SDS011;21425;50.454;30.466;2022-08-14T05:55:41;9.35;;;7.32;;
35312;SDS011;21425;50.454;30.466;2022-08-14T05:58:07;20.48;;;9.25;;
35312;SDS011;21425;50.454;30.466;2022-08-14T06:00:37;10.32;;;7.25;;
35312;SDS011;21425;50.454;30.466;2022-08-14T06:03:09;11.63;;;7.80;;
35312;SDS011;21425;50.454;30.466;2022-08-14T06:05:38;13.18;;;7.97;;
35312;SDS011;21425;50.454;30.466;2022-08-14T06:08:05;12.73;;;6.68;;
35312;SDS011;21425;50.454;30.466;2022-08-14T06:10:39;12.35;;;7.05;;
35312;SDS011;21425;50.454;30.466;2022-08-14T06:13:05;10.50;;;7.65;;
35312;SDS011;21425;50.454;30.466;2022-08-14T06:15:30;11.55;;;6.75;;
35312;SDS011;21425;50.454;30.466;2022-08-14T06:17:56;9.70;;;7.45;;
35312;SDS011;21425;50.454;30.466;2022-08-14T06:20:22;10.93;;;7.65;;
35312;SDS011;21425;50.454;30.466;2022-08-14T06:22:48;11.18;;;7.50;;
35312;SDS011;21425;50.454;30.466;2022-08-14T06:25:15;12.80;;;8.52;;
35312;SDS011;21425;50.454;30.466;2022-08-14T06:27:44;11.02;;;7.90;;
35312;SDS011;21425;50.454;30.466;2022-08-14T06:30:12;11.85;;;7.97;;
35312;SDS011;21425;50.454;30.466;2022-08-14T06:32:43;14.98;;;8.10;;
35312;SDS011;21425;50.454;30.466;2022-08-14T06:35:09;10.32;;;7.20;;
35312;SDS011;21425;50.454;30.466;2022-08-14T06:40:05;13.35;;;7.40;;
35312;SDS011;21425;50.454;30.466;2022-08-14T06:42:32;13.23;;;7.57;;
35312;SDS011;21425;50.454;30.466;2022-08-14T06:44:57;10.23;;;7.43;;
35312;SDS011;21425;50.454;30.466;2022-08-14T06:47:25;15.63;;;7.70;;
35312;SDS011;21425;50.454;30.466;2022-08-14T06:49:50;11.00;;;7.75;;
35312;SDS011;21425;50.454;30.466;2022-08-14T06:52:16;11.13;;;7.88;;
35312;SDS011;21425;50.454;30.466;2022-08-14T06:54:42;11.40;;;7.38;;
35312;SDS011;21425;50.454;30.466;2022-08-14T06:57:08;12.32;;;7.75;;
35312;SDS011;21425;50.454;30.466;2022-08-14T06:59:34;10.85;;;7.85;;
35312;SDS011;21425;50.454;30.466;2022-08-14T07:02:00;10.13;;;8.00;;
35312;SDS011;21425;50.454;30.466;2022-08-14T07:04:44;13.93;;;7.38;;
35312;SDS011;21425;50.454;30.466;2022-08-14T07:07:38;12.63;;;7.65;;
35312;SDS011;21425;50.454;30.466;2022-08-14T07:10:05;13.18;;;7.90;;
35312;SDS011;21425;50.454;30.466;2022-08-14T07:12:32;10.52;;;7.80;;
35312;SDS011;21425;50.454;30.466;2022-08-14T07:14:58;11.38;;;7.82;;
35312;SDS011;21425;50.454;30.466;2022-08-14T07:17:24;10.52;;;7.90;;
35312;SDS011;21425;50.454;30.466;2022-08-14T07:19:51;19.05;;;7.75;;
35312;SDS011;21425;50.454;30.466;2022-08-14T07:22:16;14.45;;;7.50;;
35312;SDS011;21425;50.454;30.466;2022-08-14T07:24:42;14.30;;;7.63;;
35312;SDS011;21425;50.454;30.466;2022-08-14T07:27:08;12.52;;;7.68;;
35312;SDS011;21425;50.454;30.466;2022-08-14T07:29:33;10.15;;;7.20;;
35312;SDS011;21425;50.454;30.466;2022-08-14T07:31:59;11.35;;;7.57;;
35312;SDS011;21425;50.454;30.466;2022-08-14T07:34:24;11.25;;;7.35;;
35312;SDS011;21425;50.454;30.466;2022-08-14T07:36:50;9.88;;;7.43;;
35312;SDS011;21425;50.454;30.466;2022-08-14T07:39:16;13.88;;;7.38;;
35312;SDS011;21425;50.454;30.466;2022-08-14T07:41:42;9.18;;;7.20;;
35312;SDS011;21425;50.454;30.466;2022-08-14T07:44:08;11.32;;;7.30;;
35312;SDS011;21425;50.454;30.466;2022-08-14T07:46:38;9.80;;;7.53;;
35312;SDS011;21425;50.454;30.466;2022-08-14T07:49:04;10.00;;;7.03;;
35312;SDS011;21425;50.454;30.466;2022-08-14T07:51:31;11.77;;;7.20;;
35312;SDS011;21425;50.454;30.466;2022-08-14T07:53:57;11.05;;;7.43;;
35312;SDS011;21425;50.454;30.466;2022-08-14T07:56:23;13.00;;;7.30;;
35312;SDS011;21425;50.454;30.466;2022-08-14T07:58:49;15.90;;;7.30;;
35312;SDS011;21425;50.454;30.466;2022-08-14T08:01:15;12.55;;;7.18;;
35312;SDS011;21425;50.454;30.466;2022-08-14T08:03:43;10.90;;;7.43;;
35312;SDS011;21425;50.454;30.466;2022-08-14T08:06:10;7.60;;;6.63;;
35312;SDS011;21425;50.454;30.466;2022-08-14T08:08:37;12.75;;;7.53;;
35312;SDS011;21425;50.454;30.466;2022-08-14T08:11:02;9.93;;;7.40;;
35312;SDS011;21425;50.454;30.466;2022-08-14T08:13:30;11.18;;;6.85;;
35312;SDS011;21425;50.454;30.466;2022-08-14T08:15:57;12.30;;;7.00;;
35312;SDS011;21425;50.454;30.466;2022-08-14T08:18:23;9.13;;;7.20;;
35312;SDS011;21425;50.454;30.466;2022-08-14T08:20:51;11.45;;;7.55;;
35312;SDS011;21425;50.454;30.466;2022-08-14T08:23:18;11.25;;;7.30;;
35312;SDS011;21425;50.454;30.466;2022-08-14T08:25:46;11.27;;;7.47;;
35312;SDS011;21425;50.454;30.466;2022-08-14T08:28:17;9.00;;;7.15;;
35312;SDS011;21425;50.454;30.466;2022-08-14T08:30:54;11.32;;;6.97;;
35312;SDS011;21425;50.454;30.466;2022-08-14T08:33:22;9.43;;;6.90;;
35312;SDS011;21425;50.454;30.466;2022-08-14T08:35:51;16.35;;;6.93;;
35312;SDS011;21425;50.454;30.466;2022-08-14T08:38:19;8.35;;;7.13;;
35312;SDS011;21425;50.454;30.466;2022-08-14T08:40:48;15.15;;;7.30;;
35312;SDS011;21425;50.454;30.466;2022-08-14T08:46:00;10.65;;;7.10;;
35312;SDS011;21425;50.454;30.466;2022-08-14T08:48:44;10.50;;;6.82;;
35312;SDS011;21425;50.454;30.466;2022-08-14T08:51:18;11.02;;;6.70;;
35312;SDS011;21425;50.454;30.466;2022-08-14T08:59:17;9.73;;;7.35;;
35312;SDS011;21425;50.454;30.466;2022-08-14T09:01:54;11.45;;;7.13;;
35312;SDS011;21425;50.454;30.466;2022-08-14T09:04:29;10.75;;;7.25;;
35312;SDS011;21425;50.454;30.466;2022-08-14T09:07:03;10.38;;;7.07;;
35312;SDS011;21425;50.454;30.466;2022-08-14T09:09:30;11.88;;;6.63;;
35312;SDS011;21425;50.454;30.466;2022-08-14T09:11:57;10.68;;;6.97;;
35312;SDS011;21425;50.454;30.466;2022-08-14T09:14:25;8.73;;;6.55;;
35312;SDS011;21425;50.454;30.466;2022-08-14T09:16:54;11.73;;;6.85;;
35312;SDS011;21425;50.454;30.466;2022-08-14T09:19:23;8.73;;;6.30;;
35312;SDS011;21425;50.454;30.466;2022-08-14T09:21:49;11.45;;;6.93;;
35312;SDS011;21425;50.454;30.466;2022-08-14T09:24:15;9.35;;;6.95;;
35312;SDS011;21425;50.454;30.466;2022-08-14T09:26:42;8.77;;;6.72;;
35312;SDS011;21425;50.454;30.466;2022-08-14T09:29:09;10.73;;;7.05;;
35312;SDS011;21425;50.454;30.466;2022-08-14T09:31:36;8.32;;;6.55;;
35312;SDS011;21425;50.454;30.466;2022-08-14T09:34:12;9.55;;;7.10;;
35312;SDS011;21425;50.454;30.466;2022-08-14T09:37:15;9.73;;;7.05;;
35312;SDS011;21425;50.454;30.466;2022-08-14T09:45:17;11.65;;;6.20;;
35312;SDS011;21425;50.454;30.466;2022-08-14T09:47:51;9.75;;;6.63;;
35312;SDS011;21425;50.454;30.466;2022-08-14T09:52:48;10.85;;;6.70;;
35312;SDS011;21425;50.454;30.466;2022-08-14T09:55:22;9.20;;;6.20;;
35312;SDS011;21425;50.454;30.466;2022-08-14T09:57:51;10.43;;;6.30;;
35312;SDS011;21425;50.454;30.466;2022-08-14T10:00:35;10.80;;;6.30;;
35312;SDS011;21425;50.454;30.466;2022-08-14T10:03:31;9.07;;;6.35;;
35312;SDS011;21425;50.454;30.466;2022-08-14T10:08:56;7.90;;;6.03;;
35312;SDS011;21425;50.454;30.466;2022-08-14T10:11:28;10.52;;;6.40;;
35312;SDS011;21425;50.454;30.466;2022-08-14T10:14:11;11.68;;;6.40;;
35312;SDS011;21425;50.454;30.466;2022-08-14T10:16:41;10.38;;;6.80;;
35312;SDS011;21425;50.454;30.466;2022-08-14T10:19:09;8.77;;;5.95;;
35312;SDS011;21425;50.454;30.466;2022-08-14T10:21:37;10.35;;;6.15;;
35312;SDS011;21425;50.454;30.466;2022-08-14T10:24:10;10.02;;;6.22;;
35312;SDS011;21425;50.454;30.466;2022-08-14T10:26:53;12.60;;;5.93;;
35312;SDS011;21425;50.454;30.466;2022-08-14T10:29:28;10.25;;;6.20;;
35312;SDS011;21425;50.454;30.466;2022-08-14T10:32:05;11.10;;;6.38;;
35312;SDS011;21425;50.454;30.466;2022-08-14T10:34:35;7.78;;;6.15;;
35312;SDS011;21425;50.454;30.466;2022-08-14T10:37:10;11.07;;;6.40;;
35312;SDS011;21425;50.454;30.466;2022-08-14T10:39:38;10.55;;;6.68;;
35312;SDS011;21425;50.454;30.466;2022-08-14T10:42:08;8.15;;;6.32;;
35312;SDS011;21425;50.454;30.466;2022-08-14T10:44:44;8.45;;;6.05;;
35312;SDS011;21425;50.454;30.466;2022-08-14T10:47:13;9.40;;;5.95;;
35312;SDS011;21425;50.454;30.466;2022-08-14T10:49:42;8.48;;;6.38;;
35312;SDS011;21425;50.454;30.466;2022-08-14T10:52:24;8.88;;;6.10;;
35312;SDS011;21425;50.454;30.466;2022-08-14T10:54:51;9.02;;;6.28;;
35312;SDS011;21425;50.454;30.466;2022-08-14T10:57:29;12.13;;;5.65;;
35312;SDS011;21425;50.454;30.466;2022-08-14T10:59:56;9.18;;;6.60;;
35312;SDS011;21425;50.454;30.466;2022-08-14T11:05:36;9.75;;;6.18;;
35312;SDS011;21425;50.454;30.466;2022-08-14T11:07:54;15.30;;;6.20;;
35312;SDS011;21425;50.454;30.466;2022-08-14T11:10:23;9.82;;;5.90;;
35312;SDS011;21425;50.454;30.466;2022-08-14T11:12:53;9.38;;;6.43;;
35312;SDS011;21425;50.454;30.466;2022-08-14T11:15:22;9.82;;;5.55;;
35312;SDS011;21425;50.454;30.466;2022-08-14T11:17:49;10.35;;;5.90;;
35312;SDS011;21425;50.454;30.466;2022-08-14T11:20:20;8.55;;;5.13;;
35312;SDS011;21425;50.454;30.466;2022-08-14T11:22:50;9.50;;;5.90;;
35312;SDS011;21425;50.454;30.466;2022-08-14T11:25:19;12.20;;;5.43;;
35312;SDS011;21425;50.454;30.466;2022-08-14T11:27:51;8.18;;;5.53;;
35312;SDS011;21425;50.454;30.466;2022-08-14T11:30:22;12.07;;;6.35;;
35312;SDS011;21425;50.454;30.466;2022-08-14T11:32:49;12.35;;;6.00;;
35312;SDS011;21425;50.454;30.466;2022-08-14T11:35:19;7.47;;;5.70;;
35312;SDS011;21425;50.454;30.466;2022-08-14T11:40:25;8.07;;;5.25;;
35312;SDS011;21425;50.454;30.466;2022-08-14T11:42:59;6.68;;;5.43;;
35312;SDS011;21425;50.454;30.466;2022-08-14T11:45:27;11.27;;;6.18;;
35312;SDS011;21425;50.454;30.466;2022-08-14T11:48:21;11.82;;;5.93;;
35312;SDS011;21425;50.454;30.466;2022-08-14T11:50:54;11.27;;;5.82;;
35312;SDS011;21425;50.454;30.466;2022-08-14T11:53:24;8.85;;;6.35;;
35312;SDS011;21425;50.454;30.466;2022-08-14T11:55:59;7.80;;;5.45;;
35312;SDS011;21425;50.454;30.466;2022-08-14T11:58:29;10.15;;;5.80;;
35312;SDS011;21425;50.454;30.466;2022-08-14T12:00:58;9.63;;;6.00;;
35312;SDS011;21425;50.454;30.466;2022-08-14T12:03:52;9.80;;;6.03;;
35312;SDS011;21425;50.454;30.466;2022-08-14T12:06:20;7.13;;;5.28;;
35312;SDS011;21425;50.454;30.466;2022-08-14T12:08:46;9.70;;;6.03;;
35312;SDS011;21425;50.454;30.466;2022-08-14T12:11:18;10.25;;;5.90;;
35312;SDS011;21425;50.454;30.466;2022-08-14T12:13:44;10.70;;;5.70;;
35312;SDS011;21425;50.454;30.466;2022-08-14T12:16:11;9.88;;;5.90;;
35312;SDS011;21425;50.454;30.466;2022-08-14T12:18:41;10.02;;;5.35;;
35312;SDS011;21425;50.454;30.466;2022-08-14T12:21:12;7.97;;;5.35;;
35312;SDS011;21425;50.454;30.466;2022-08-14T12:23:41;8.00;;;5.35;;
35312;SDS011;21425;50.454;30.466;2022-08-14T12:26:09;18.15;;;6.07;;
35312;SDS011;21425;50.454;30.466;2022-08-14T12:28:38;12.20;;;5.80;;
35312;SDS011;21425;50.454;30.466;2022-08-14T12:31:19;8.73;;;5.88;;
35312;SDS011;21425;50.454;30.466;2022-08-14T12:34:02;7.97;;;5.50;;
35312;SDS011;21425;50.454;30.466;2022-08-14T12:36:29;11.68;;;5.50;;
35312;SDS011;21425;50.454;30.466;2022-08-14T12:38:55;13.20;;;6.10;;
35312;SDS011;21425;50.454;30.466;2022-08-14T12:41:23;10.38;;;5.70;;
35312;SDS011;21425;50.454;30.466;2022-08-14T12:43:52;6.88;;;5.25;;
35312;SDS011;21425;50.454;30.466;2022-08-14T12:46:26;7.72;;;5.82;;
35312;SDS011;21425;50.454;30.466;2022-08-14T12:48:53;9.18;;;5.57;;
35312;SDS011;21425;50.454;30.466;2022-08-14T12:51:20;7.20;;;5.15;;
35312;SDS011;21425;50.454;30.466;2022-08-14T12:53:47;8.68;;;5.47;;
35312;SDS011;21425;50.454;30.466;2022-08-14T12:56:17;15.05;;;5.88;;
35312;SDS011;21425;50.454;30.466;2022-08-14T12:58:48;11.05;;;6.18;;
35312;SDS011;21425;50.454;30.466;2022-08-14T13:01:34;11.00;;;6.03;;
35312;SDS011;21425;50.454;30.466;2022-08-14T13:04:02;10.88;;;5.35;;
35312;SDS011;21425;50.454;30.466;2022-08-14T13:06:29;12.43;;;6.25;;
35312;SDS011;21425;50.454;30.466;2022-08-14T13:08:55;6.80;;;5.30;;
35312;SDS011;21425;50.454;30.466;2022-08-14T13:11:20;11.07;;;5.65;;
35312;SDS011;21425;50.454;30.466;2022-08-14T13:13:50;9.95;;;5.78;;
35312;SDS011;21425;50.454;30.466;2022-08-14T13:16:21;10.25;;;5.88;;
35312;SDS011;21425;50.454;30.466;2022-08-14T13:18:47;7.35;;;5.53;;
35312;SDS011;21425;50.454;30.466;2022-08-14T13:21:14;10.75;;;5.50;;
35312;SDS011;21425;50.454;30.466;2022-08-14T13:23:41;11.85;;;6.38;;
35312;SDS011;21425;50.454;30.466;2022-08-14T13:26:10;9.95;;;6.38;;
35312;SDS011;21425;50.454;30.466;2022-08-14T13:28:37;8.70;;;5.65;;
35312;SDS011;21425;50.454;30.466;2022-08-14T13:31:04;9.65;;;6.13;;
35312;SDS011;21425;50.454;30.466;2022-08-14T13:33:33;8.32;;;6.10;;
35312;SDS011;21425;50.454;30.466;2022-08-14T13:36:01;7.50;;;6.05;;
35312;SDS011;21425;50.454;30.466;2022-08-14T13:38:27;8.45;;;5.80;;
35312;SDS011;21425;50.454;30.466;2022-08-14T13:40:55;8.88;;;6.57;;
35312;SDS011;21425;50.454;30.466;2022-08-14T13:43:22;7.88;;;6.20;;
35312;SDS011;21425;50.454;30.466;2022-08-14T13:45:51;14.90;;;6.75;;
35312;SDS011;21425;50.454;30.466;2022-08-14T13:48:20;11.38;;;6.07;;
35312;SDS011;21425;50.454;30.466;2022-08-14T13:50:47;13.15;;;6.13;;
35312;SDS011;21425;50.454;30.466;2022-08-14T13:53:19;12.35;;;6.85;;
35312;SDS011;21425;50.454;30.466;2022-08-14T13:55:47;11.07;;;7.05;;
35312;SDS011;21425;50.454;30.466;2022-08-14T13:58:15;12.07;;;6.20;;
35312;SDS011;21425;50.454;30.466;2022-08-14T14:00:48;11.00;;;6.55;;
35312;SDS011;21425;50.454;30.466;2022-08-14T14:03:20;12.10;;;6.07;;
35312;SDS011;21425;50.454;30.466;2022-08-14T14:05:48;10.45;;;6.47;;
35312;SDS011;21425;50.454;30.466;2022-08-14T14:08:15;10.45;;;6.60;;
35312;SDS011;21425;50.454;30.466;2022-08-14T14:10:43;17.20;;;7.15;;
35312;SDS011;21425;50.454;30.466;2022-08-14T14:13:10;13.00;;;7.32;;
35312;SDS011;21425;50.454;30.466;2022-08-14T14:15:40;11.27;;;6.72;;
35312;SDS011;21425;50.454;30.466;2022-08-14T14:18:06;12.20;;;7.32;;
35312;SDS011;21425;50.454;30.466;2022-08-14T14:20:32;15.90;;;7.38;;
35312;SDS011;21425;50.454;30.466;2022-08-14T14:22:59;10.75;;;6.90;;
35312;SDS011;21425;50.454;30.466;2022-08-14T14:25:24;9.00;;;6.88;;
35312;SDS011;21425;50.454;30.466;2022-08-14T14:27:50;9.05;;;6.90;;
35312;SDS011;21425;50.454;30.466;2022-08-14T14:30:17;13.10;;;6.90;;
35312;SDS011;21425;50.454;30.466;2022-08-14T14:32:43;13.95;;;6.88;;
35312;SDS011;21425;50.454;30.466;2022-08-14T14:35:13;11.10;;;7.35;;
35312;SDS011;21425;50.454;30.466;2022-08-14T14:37:41;14.15;;;7.20;;
35312;SDS011;21425;50.454;30.466;2022-08-14T14:40:08;8.98;;;7.13;;
35312;SDS011;21425;50.454;30.466;2022-08-14T14:42:46;9.80;;;6.32;;
35312;SDS011;21425;50.454;30.466;2022-08-14T14:45:14;10.18;;;6.65;;
35312;SDS011;21425;50.454;30.466;2022-08-14T14:47:44;13.90;;;6.70;;
35312;SDS011;21425;50.454;30.466;2022-08-14T14:50:12;11.75;;;6.40;;
35312;SDS011;21425;50.454;30.466;2022-08-14T14:52:38;9.75;;;6.20;;
35312;SDS011;21425;50.454;30.466;2022-08-14T14:55:05;9.57;;;5.82;;
35312;SDS011;21425;50.454;30.466;2022-08-14T14:57:32;10.57;;;5.68;;
35312;SDS011;21425;50.454;30.466;2022-08-14T14:59:58;11.23;;;5.55;;
35312;SDS011;21425;50.454;30.466;2022-08-14T15:02:33;10.55;;;5.85;;
35312;SDS011;21425;50.454;30.466;2022-08-14T15:05:01;12.98;;;5.55;;